TimeEDT,TemperatureF,Dew PointF,Humidity,Sea Level PressureIn,VisibilityMPH,Wind Direction,Wind SpeedMPH,Gust SpeedMPH,PrecipitationIn,Events,Conditions,WindDirDegrees,DateUTC
12:07 AM,48.9,48.0,97,30.05,2.0,North,13.8,27.6,0.00,Rain,Light Rain,360,2013-05-22 04:07:00
12:21 AM,48.0,48.0,100,30.05,5.0,North,16.1,20.7,0.01,Rain,Light Rain,10,2013-05-22 04:21:00
12:28 AM,48.0,48.0,100,30.02,9.0,NNE,10.4,20.7,0.01,Rain,Light Rain,30,2013-05-22 04:28:00
12:45 AM,48.0,48.0,100,29.98,10.0,NE,10.4,-,0.01,Rain,Light Rain,50,2013-05-22 04:45:00
12:54 AM,48.0,48.0,100,29.98,10.0,ENE,10.4,-,0.01,Thunderstorm,Overcast,60,2013-05-22 04:54:00
1:10 AM,48.0,48.0,100,29.96,10.0,East,9.2,18.4,N/A,,Overcast,80,2013-05-22 05:10:00
1:32 AM,48.0,48.0,100,29.96,10.0,ENE,8.1,-,N/A,,Overcast,60,2013-05-22 05:32:00
1:46 AM,48.0,48.0,100,29.94,10.0,East,8.1,-,N/A,Thunderstorm,Overcast,90,2013-05-22 05:46:00
1:54 AM,48.0,48.0,100,29.93,10.0,East,8.1,-,N/A,Thunderstorm,Overcast,90,2013-05-22 05:54:00
1:59 AM,48.0,48.0,100,29.93,10.0,ESE,8.1,-,N/A,,Overcast,110,2013-05-22 05:59:00
2:54 AM,48.0,48.0,100,29.95,10.0,Calm,Calm,-,N/A,,Overcast,0,2013-05-22 06:54:00
3:39 AM,50.0,48.9,96,29.98,5.0,NNE,6.9,-,0.04,Rain,Heavy Rain,20,2013-05-22 07:39:00
3:54 AM,48.9,48.9,100,29.94,10.0,SE,6.9,-,0.08,Rain,Light Rain,130,2013-05-22 07:54:00
4:19 AM,48.9,48.9,100,29.94,4.0,SE,4.6,-,0.00,,Overcast,130,2013-05-22 08:19:00
4:22 AM,48.9,48.9,100,29.94,1.5,SSE,4.6,-,0.00,,Overcast,150,2013-05-22 08:22:00
4:26 AM,48.9,48.9,100,29.93,0.8,SE,4.6,-,0.00,Rain,Light Rain,130,2013-05-22 08:26:00
4:37 AM,48.9,48.9,100,29.93,2.0,SSE,5.8,-,0.01,Rain,Light Rain,150,2013-05-22 08:37:00
4:54 AM,48.9,48.9,100,29.92,2.5,South,4.6,-,0.02,Rain,Light Rain,180,2013-05-22 08:54:00
5:03 AM,48.9,48.9,100,29.92,5.0,South,5.8,-,0.00,Rain,Light Rain,180,2013-05-22 09:03:00
5:11 AM,48.9,48.9,100,29.93,7.0,South,5.8,-,0.00,Rain,Light Rain,180,2013-05-22 09:11:00
5:54 AM,50.0,50.0,100,29.92,6.0,South,8.1,-,0.06,Rain,Light Rain,180,2013-05-22 09:54:00
6:24 AM,50.0,50.0,100,29.93,8.0,SW,8.1,-,0.03,Rain,Light Rain,230,2013-05-22 10:24:00
6:54 AM,51.1,51.1,100,29.93,10.0,SW,12.7,-,0.04,,Mostly Cloudy,220,2013-05-22 10:54:00
7:08 AM,51.1,51.1,100,29.91,10.0,SW,11.5,-,N/A,,Mostly Cloudy,220,2013-05-22 11:08:00
7:16 AM,52.0,52.0,100,29.91,10.0,WSW,9.2,-,N/A,,Mostly Cloudy,240,2013-05-22 11:16:00
7:54 AM,55.0,54.0,96,29.91,10.0,WSW,11.5,-,N/A,,Partly Cloudy,250,2013-05-22 11:54:00
8:20 AM,57.9,55.9,93,29.91,10.0,SW,9.2,-,N/A,,Partly Cloudy,230,2013-05-22 12:20:00
8:35 AM,57.9,57.0,97,29.91,10.0,WSW,9.2,-,N/A,,Mostly Cloudy,240,2013-05-22 12:35:00
8:54 AM,57.0,55.9,96,29.93,10.0,SW,9.2,-,N/A,,Overcast,230,2013-05-22 12:54:00
9:21 AM,59.0,57.0,93,29.93,10.0,WSW,9.2,-,N/A,,Overcast,250,2013-05-22 13:21:00
9:54 AM,57.9,57.0,97,29.94,10.0,SW,8.1,-,N/A,,Overcast,230,2013-05-22 13:54:00
10:44 AM,61.0,59.0,93,29.94,10.0,WSW,5.8,-,N/A,,Overcast,250,2013-05-22 14:44:00
10:54 AM,61.0,59.0,93,29.95,10.0,SW,10.4,-,N/A,,Overcast,220,2013-05-22 14:54:00
11:54 AM,66.0,61.0,84,29.94,10.0,SW,4.6,-,N/A,,Unknown,220,2013-05-22 15:54:00
12:54 PM,72.0,63.0,73,29.93,10.0,Variable,4.6,-,N/A,,Partly Cloudy,0,2013-05-22 16:54:00
1:38 PM,73.0,64.0,73,29.92,10.0,Variable,4.6,-,N/A,,Mostly Cloudy,0,2013-05-22 17:38:00
1:54 PM,73.0,64.9,76,29.91,10.0,SE,5.8,-,N/A,,Scattered Clouds,140,2013-05-22 17:54:00
2:21 PM,73.9,64.9,73,29.91,10.0,SE,5.8,-,N/A,,Mostly Cloudy,130,2013-05-22 18:21:00
2:37 PM,73.0,64.9,76,29.91,10.0,East,5.8,-,N/A,,Scattered Clouds,90,2013-05-22 18:37:00
2:51 PM,73.4,64.4,73,29.90,10.0,Variable,5.8,-,N/A,,Mostly Cloudy,0,2013-05-22 18:51:00
2:54 PM,73.0,64.9,76,29.91,10.0,SSE,6.9,-,N/A,,Mostly Cloudy,150,2013-05-22 18:54:00
3:54 PM,73.9,66.0,76,29.91,10.0,SSE,6.9,-,N/A,,Mostly Cloudy,160,2013-05-22 19:54:00
4:01 PM,75.0,66.0,73,29.91,10.0,South,8.1,-,N/A,,Scattered Clouds,190,2013-05-22 20:01:00
4:49 PM,73.4,66.2,78,29.89,10.0,SSE,8.1,-,N/A,,Mostly Cloudy,160,2013-05-22 20:49:00
4:54 PM,73.9,66.9,79,29.89,10.0,South,11.5,-,N/A,,Mostly Cloudy,190,2013-05-22 20:54:00
5:24 PM,73.0,66.0,79,29.88,10.0,SSE,9.2,-,N/A,,Scattered Clouds,150,2013-05-22 21:24:00
5:47 PM,72.0,66.0,81,29.88,10.0,SE,10.4,-,N/A,,Mostly Cloudy,130,2013-05-22 21:47:00
5:54 PM,72.0,66.0,81,29.89,10.0,SE,9.2,-,N/A,,Mostly Cloudy,130,2013-05-22 21:54:00
6:03 PM,72.0,66.0,81,29.89,9.0,SSE,9.2,-,N/A,,Overcast,150,2013-05-22 22:03:00
6:40 PM,71.1,66.0,84,29.89,9.0,South,6.9,-,N/A,,Overcast,170,2013-05-22 22:40:00
6:54 PM,72.0,66.0,81,29.90,9.0,SE,8.1,-,N/A,,Overcast,130,2013-05-22 22:54:00
7:07 PM,69.1,64.0,84,29.91,10.0,East,11.5,-,N/A,,Overcast,90,2013-05-22 23:07:00
7:54 PM,62.1,57.9,86,29.93,10.0,ENE,9.2,-,N/A,,Overcast,60,2013-05-22 23:54:00
8:34 PM,60.1,55.9,86,29.93,10.0,ENE,6.9,-,N/A,,Overcast,70,2013-05-23 00:34:00
8:54 PM,57.9,55.0,90,29.93,10.0,ENE,8.1,-,N/A,,Overcast,60,2013-05-23 00:54:00
9:54 PM,55.9,54.0,93,29.95,7.0,ENE,5.8,-,N/A,,Overcast,60,2013-05-23 01:54:00
10:54 PM,55.0,54.0,96,29.95,4.0,ENE,4.6,-,N/A,,Overcast,70,2013-05-23 02:54:00
11:03 PM,55.0,54.0,96,29.95,4.0,ENE,5.8,-,N/A,,Overcast,70,2013-05-23 03:03:00
11:54 PM,54.0,54.0,100,29.93,3.0,ENE,3.5,-,N/A,,Overcast,60,2013-05-23 03:54:00